createdAt,value
2023-03-05T00:01:35.051Z,101750.16
2023-03-05T00:04:03.242Z,101756.03
2023-03-05T00:06:31.497Z,101755.22
2023-03-05T00:08:58.551Z,101744.56
2023-03-05T00:11:28.049Z,101751.66
2023-03-05T00:13:55.392Z,101750.19
2023-03-05T00:16:22.901Z,101746.41
2023-03-05T00:18:49.873Z,101744.00
2023-03-05T00:21:28.026Z,101741.94
2023-03-05T00:23:55.747Z,101729.00
2023-03-05T00:26:24.914Z,101734.16
2023-03-05T00:28:52.468Z,101738.03
2023-03-05T00:31:24.566Z,101732.88
2023-03-05T00:33:55.781Z,101731.63
2023-03-05T00:36:22.774Z,101723.38
2023-03-05T00:38:49.222Z,101730.03
2023-03-05T00:41:15.712Z,101722.56
2023-03-05T00:43:42.411Z,101731.16
2023-03-05T00:46:08.991Z,101728.88
2023-03-05T00:48:35.496Z,101722.25
2023-03-05T00:51:02.425Z,101718.78
2023-03-05T00:53:28.939Z,101717.63
2023-03-05T00:55:55.504Z,101713.19
2023-03-05T00:58:21.958Z,101712.59
2023-03-05T01:00:50.728Z,101703.47
2023-03-05T01:03:18.429Z,101697.50
2023-03-05T01:05:45.085Z,101688.22
2023-03-05T01:08:11.777Z,101693.22
2023-03-05T01:10:38.425Z,101698.47
2023-03-05T01:13:05.047Z,101695.63
2023-03-05T01:15:31.499Z,101694.72
2023-03-05T01:17:58.047Z,101691.06
2023-03-05T01:20:24.595Z,101691.50
2023-03-05T01:22:51.276Z,101688.06
2023-03-05T01:25:18.519Z,101699.53
2023-03-05T01:27:45.817Z,101682.44
2023-03-05T01:30:14.431Z,101685.31
2023-03-05T01:32:41.225Z,101678.91
2023-03-05T01:35:15.386Z,101676.38
2023-03-05T01:37:41.845Z,101678.91
2023-03-05T01:40:09.871Z,101674.91
2023-03-05T01:42:36.339Z,101680.97
2023-03-05T01:45:02.845Z,101668.38
2023-03-05T01:47:29.698Z,101665.41
2023-03-05T01:49:56.854Z,101663.44
2023-03-05T01:52:25.625Z,101665.16
2023-03-05T01:54:56.850Z,101663.56
2023-03-05T01:57:29.733Z,101662.06
2023-03-05T02:00:01.460Z,101659.00
2023-03-05T02:02:27.978Z,101655.56
2023-03-05T02:05:02.504Z,101648.00
2023-03-05T02:07:29.969Z,101655.56
2023-03-05T02:09:56.463Z,101631.06
2023-03-05T02:12:23.273Z,101638.97
2023-03-05T02:14:59.010Z,101641.03
2023-03-05T02:17:27.853Z,101632.31
2023-03-05T02:20:02.211Z,101629.22
2023-03-05T02:22:28.654Z,101625.81
2023-03-05T02:24:55.117Z,101628.56
2023-03-05T02:27:34.650Z,101615.97
2023-03-05T02:30:02.213Z,101625.38
2023-03-05T02:32:28.747Z,101613.09
2023-03-05T02:34:55.245Z,101614.13
2023-03-05T02:37:21.738Z,101607.03
2023-03-05T02:39:48.158Z,101605.09
2023-03-05T02:42:14.623Z,101612.19
2023-03-05T02:44:41.083Z,101610.94
2023-03-05T02:47:07.743Z,101606.69
2023-03-05T02:49:34.573Z,101604.41
2023-03-05T02:52:00.992Z,101600.28
2023-03-05T02:54:27.475Z,101598.22
2023-03-05T02:56:53.910Z,101596.16
2023-03-05T02:59:20.365Z,101591.69
2023-03-05T03:01:46.807Z,101587.50
2023-03-05T03:04:13.325Z,101584.41
2023-03-05T03:06:39.811Z,101574.53
2023-03-05T03:09:06.268Z,101577.28
2023-03-05T03:11:32.853Z,101571.13
2023-03-05T03:14:00.655Z,101573.75
2023-03-05T03:16:27.196Z,101570.41
2023-03-05T03:18:53.695Z,101569.53
2023-03-05T03:21:23.152Z,101564.59
2023-03-05T03:23:49.744Z,101562.91
2023-03-05T03:26:17.263Z,101554.06
2023-03-05T03:28:44.226Z,101551.22
2023-03-05T03:31:10.955Z,101545.38
2023-03-05T03:33:37.491Z,101547.66
2023-03-05T03:36:04.933Z,101547.56
2023-03-05T03:38:31.499Z,101543.09
2023-03-05T03:40:58.024Z,101545.03
2023-03-05T03:43:24.569Z,101540.47
2023-03-05T03:45:51.066Z,101545.72
2023-03-05T03:48:18.017Z,101534.88
2023-03-05T03:50:44.636Z,101535.78
2023-03-05T03:53:14.621Z,101534.28
2023-03-05T03:55:51.029Z,101527.88
2023-03-05T03:58:17.500Z,101522.41
2023-03-05T04:00:43.947Z,101514.19
2023-03-05T04:03:10.472Z,101499.56
2023-03-05T04:05:37.027Z,101514.41
2023-03-05T04:08:03.678Z,101510.75
2023-03-05T04:10:30.201Z,101503.19
2023-03-05T04:12:56.681Z,101501.13
2023-03-05T04:15:23.190Z,101496.44
2023-03-05T04:17:49.764Z,101491.88
2023-03-05T04:20:16.573Z,101492.44
2023-03-05T04:22:43.124Z,101493.81
2023-03-05T04:25:10.156Z,101491.75
2023-03-05T04:27:37.884Z,101486.22
2023-03-05T04:30:04.950Z,101498.16
2023-03-05T04:32:31.501Z,101486.94
2023-03-05T04:34:58.314Z,101490.94
2023-03-05T04:37:25.944Z,101487.84
2023-03-05T04:39:53.253Z,101492.91
2023-03-05T04:42:21.143Z,101493.81
2023-03-05T04:44:49.190Z,101486.50
2023-03-05T04:47:16.708Z,101482.38
2023-03-05T04:49:43.590Z,101475.88
2023-03-05T04:52:14.646Z,101473.13
2023-03-05T04:54:41.604Z,101467.50
2023-03-05T04:57:09.003Z,101471.16
2023-03-05T04:59:37.096Z,101458.81
2023-03-05T05:02:04.146Z,101458.34
2023-03-05T05:04:30.917Z,101461.97
2023-03-05T05:06:57.997Z,101458.22
2023-03-05T05:09:25.191Z,101464.75
2023-03-05T05:11:51.886Z,101475.03
2023-03-05T05:14:18.760Z,101465.53
2023-03-05T05:16:45.225Z,101471.84
2023-03-05T05:19:11.854Z,101471.84
2023-03-05T05:21:38.532Z,101474.09
2023-03-05T05:24:05.533Z,101464.16
2023-03-05T05:26:32.048Z,101466.56
2023-03-05T05:28:58.490Z,101462.22
2023-03-05T05:31:25.034Z,101464.75
2023-03-05T05:33:51.632Z,101446.34
2023-03-05T05:36:19.326Z,101451.72
2023-03-05T05:38:46.007Z,101446.13
2023-03-05T05:41:15.265Z,101450.34
2023-03-05T05:43:42.148Z,101451.25
2023-03-05T05:46:12.907Z,101448.84
2023-03-05T05:48:40.180Z,101450.34
2023-03-05T05:51:12.409Z,101449.66
2023-03-05T05:53:39.500Z,101446.47
2023-03-05T05:56:07.142Z,101442.56
2023-03-05T05:58:34.201Z,101447.25
2023-03-05T06:01:00.806Z,101451.94
2023-03-05T06:03:27.727Z,101452.28
2023-03-05T06:05:54.574Z,101440.88
2023-03-05T06:08:21.069Z,101443.81
2023-03-05T06:10:54.605Z,101437.28
2023-03-05T06:13:21.446Z,101440.63
2023-03-05T06:15:56.904Z,101439.91
2023-03-05T06:18:23.571Z,101448.84
2023-03-05T06:21:01.356Z,101437.56
2023-03-05T06:23:28.209Z,101435.94
2023-03-05T06:25:55.481Z,101437.88
2023-03-05T06:28:22.154Z,101446.22
2023-03-05T06:30:48.628Z,101448.97
2023-03-05T06:33:15.294Z,101439.47
2023-03-05T06:35:41.941Z,101436.75
2023-03-05T06:38:09.094Z,101445.88
2023-03-05T06:40:39.197Z,101436.06
2023-03-05T06:43:05.792Z,101438.47
2023-03-05T06:45:32.235Z,101436.84
2023-03-05T06:47:58.676Z,101437.91
2023-03-05T06:50:25.654Z,101436.06
2023-03-05T06:52:52.491Z,101434.25
2023-03-05T06:55:19.313Z,101433.66
2023-03-05T06:57:45.836Z,101431.06
2023-03-05T07:00:12.965Z,101435.38
2023-03-05T07:02:39.557Z,101432.53
2023-03-05T07:05:07.858Z,101430.72
2023-03-05T07:07:34.803Z,101427.28
2023-03-05T07:10:01.498Z,101431.88
2023-03-05T07:12:27.985Z,101424.31
2023-03-05T07:14:54.758Z,101420.31
2023-03-05T07:17:21.249Z,101426.63
2023-03-05T07:19:47.708Z,101419.63
2023-03-05T07:22:14.167Z,101424.88
2023-03-05T07:24:40.627Z,101424.00
2023-03-05T07:27:07.138Z,101419.31
2023-03-05T07:29:34.299Z,101420.31
2023-03-05T07:32:00.758Z,101415.53
2023-03-05T07:34:27.519Z,101419.63
2023-03-05T07:36:54.053Z,101423.75
2023-03-05T07:39:20.596Z,101414.03
2023-03-05T07:41:47.642Z,101414.28
2023-03-05T07:44:14.154Z,101410.03
2023-03-05T07:46:41.844Z,101406.59
2023-03-05T07:49:08.477Z,101401.34
2023-03-05T07:51:35.119Z,101405.94
2023-03-05T07:54:02.006Z,101407.72
2023-03-05T07:56:35.295Z,101398.47
2023-03-05T07:59:05.088Z,101398.00
2023-03-05T08:01:32.480Z,101401.22
2023-03-05T08:03:59.035Z,101388.75
2023-03-05T08:06:25.578Z,101392.03
2023-03-05T08:08:52.053Z,101386.34
2023-03-05T08:11:18.782Z,101390.66
2023-03-05T08:13:45.528Z,101397.59
2023-03-05T08:16:15.008Z,101386.81
2023-03-05T08:18:41.728Z,101390.72
2023-03-05T08:21:16.496Z,101386.28
2023-03-05T08:23:42.990Z,101382.38
2023-03-05T08:26:19.224Z,101390.63
2023-03-05T08:28:45.793Z,101370.97
2023-03-05T08:31:13.727Z,101377.34
2023-03-05T08:33:40.750Z,101374.84
2023-03-05T08:36:08.722Z,101370.28
2023-03-05T08:38:35.992Z,101378.03
2023-03-05T08:41:02.767Z,101351.28
2023-03-05T08:43:30.875Z,101367.19
2023-03-05T08:45:59.568Z,101375.41
2023-03-05T08:48:26.193Z,101366.22
2023-03-05T08:50:53.225Z,101365.88
2023-03-05T08:53:19.753Z,101359.69
2023-03-05T08:55:57.141Z,101359.22
2023-03-05T08:58:24.501Z,101367.47
2023-03-05T09:00:51.325Z,101358.41
2023-03-05T09:03:18.400Z,101359.00
2023-03-05T09:05:45.114Z,101361.75
2023-03-05T09:08:11.857Z,101359.47
2023-03-05T09:10:38.390Z,101353.19
2023-03-05T09:13:04.849Z,101350.44
2023-03-05T09:15:31.410Z,101351.44
2023-03-05T09:17:59.592Z,101355.25
2023-03-05T09:20:26.196Z,101344.81
2023-03-05T09:22:52.793Z,101342.66
2023-03-05T09:25:19.390Z,101348.16
2023-03-05T09:27:45.854Z,101341.34
2023-03-05T09:30:13.581Z,101339.53
2023-03-05T09:32:40.386Z,101331.28
2023-03-05T09:35:07.602Z,101330.88
2023-03-05T09:37:34.565Z,101333.06
2023-03-05T09:40:01.036Z,101336.59
2023-03-05T09:42:33.925Z,101338.75
2023-03-05T09:45:15.522Z,101330.59
2023-03-05T09:48:21.577Z,101325.94
2023-03-05T09:50:52.889Z,101329.78
2023-03-05T09:53:28.396Z,101332.00
2023-03-05T09:55:57.878Z,101330.13
2023-03-05T09:58:41.078Z,101319.97
2023-03-05T10:01:16.456Z,101323.91
2023-03-05T10:03:53.052Z,101319.28
2023-03-05T10:06:24.405Z,101324.31
2023-03-05T10:08:56.045Z,101311.84
2023-03-05T10:11:42.782Z,101303.16
2023-03-05T10:14:17.275Z,101312.31
2023-03-05T10:16:50.369Z,101308.78
2023-03-05T10:19:34.817Z,101310.88
2023-03-05T10:22:24.991Z,101295.06
2023-03-05T10:24:57.284Z,101291.59
2023-03-05T10:27:48.605Z,101292.13
2023-03-05T10:30:36.439Z,101287.94
2023-03-05T10:33:17.952Z,101283.09
2023-03-05T10:36:02.609Z,101272.41
2023-03-05T10:38:48.127Z,101282.28
2023-03-05T10:41:44.142Z,101264.84
2023-03-05T10:44:36.811Z,101263.81
2023-03-05T10:47:14.789Z,101265.88
2023-03-05T10:49:50.130Z,101261.66
2023-03-05T10:52:27.045Z,101262.44
2023-03-05T10:54:53.663Z,101262.56
2023-03-05T10:57:26.151Z,101257.97
2023-03-05T11:00:25.038Z,101255.56
2023-03-05T11:03:10.053Z,101249.34
2023-03-05T11:05:42.874Z,101246.41
2023-03-05T11:08:31.371Z,101241.16
2023-03-05T11:11:09.961Z,101239.97
2023-03-05T11:13:58.634Z,101236.50
2023-03-05T11:16:26.812Z,101233.75
2023-03-05T11:19:18.514Z,101231.06
2023-03-05T11:21:47.861Z,101228.06
2023-03-05T11:24:18.187Z,101229.78
2023-03-05T11:26:50.472Z,101230.13
2023-03-05T11:29:26.316Z,101225.91
2023-03-05T11:31:55.283Z,101219.59
2023-03-05T11:34:25.293Z,101221.03
2023-03-05T11:36:54.841Z,101218.72
2023-03-05T11:39:23.609Z,101212.53
2023-03-05T11:42:05.121Z,101209.25
2023-03-05T11:44:48.288Z,101208.75
2023-03-05T11:47:35.872Z,101207.47
2023-03-05T11:50:12.722Z,101200.31
2023-03-05T11:52:48.008Z,101194.25
2023-03-05T11:55:25.396Z,101193.31
2023-03-05T11:58:06.922Z,101187.78
2023-03-05T12:00:36.803Z,101177.41
2023-03-05T12:03:08.027Z,101180.97
2023-03-05T12:05:37.499Z,101174.34
2023-03-05T12:08:05.766Z,101175.50
2023-03-05T12:10:32.271Z,101172.84
2023-03-05T12:13:22.127Z,101168.97
2023-03-05T12:16:08.957Z,101158.25
2023-03-05T12:18:51.353Z,101165.06
2023-03-05T12:21:32.925Z,101150.56
2023-03-05T12:24:02.087Z,101151.78
2023-03-05T12:26:53.637Z,101154.19
2023-03-05T12:29:41.664Z,101150.38
2023-03-05T12:32:23.293Z,101139.91
2023-03-05T12:35:09.024Z,101133.81
2023-03-05T12:37:35.835Z,101136.56
2023-03-05T12:40:10.903Z,101122.81
2023-03-05T12:42:37.374Z,101122.59
2023-03-05T12:45:10.062Z,101115.16
2023-03-05T12:47:40.320Z,101106.16
2023-03-05T12:50:28.781Z,101102.53
2023-03-05T12:53:00.254Z,101092.19
2023-03-05T12:55:47.812Z,101089.72
2023-03-05T12:58:17.303Z,101089.16
2023-03-05T13:00:49.484Z,101077.66
2023-03-05T13:03:30.401Z,101070.50
2023-03-05T13:05:59.428Z,101075.00
2023-03-05T13:08:37.777Z,101070.41
2023-03-05T13:11:16.353Z,101066.59
2023-03-05T13:13:46.340Z,101066.94
2023-03-05T13:16:29.016Z,101057.66
2023-03-05T13:18:59.520Z,101053.28
2023-03-05T13:21:31.505Z,101048.50
2023-03-05T13:24:02.983Z,101053.06
2023-03-05T13:26:40.708Z,101047.47
2023-03-05T13:29:16.619Z,101040.00
2023-03-05T13:32:00.523Z,101036.38
2023-03-05T13:34:44.662Z,101030.75
2023-03-05T13:37:25.723Z,101026.81
2023-03-05T13:39:57.757Z,101016.94
2023-03-05T13:42:34.477Z,101018.81
2023-03-05T13:45:04.126Z,101009.03
2023-03-05T13:47:33.792Z,101009.47
2023-03-05T13:50:02.495Z,101006.50
2023-03-05T13:52:37.115Z,101003.34
2023-03-05T13:55:12.125Z,100999.38
2023-03-05T13:57:47.438Z,100999.06
2023-03-05T14:00:26.064Z,100994.09
2023-03-05T14:02:59.723Z,100988.69
2023-03-05T14:05:27.971Z,100987.16
2023-03-05T14:07:56.649Z,100980.81
2023-03-05T14:10:43.872Z,100982.41
2023-03-05T14:13:19.025Z,100974.09
2023-03-05T14:16:07.275Z,100970.91
2023-03-05T14:18:34.931Z,100969.72
2023-03-05T14:21:01.506Z,100966.06
2023-03-05T14:23:54.691Z,100964.31
2023-03-05T14:26:21.091Z,100958.50
2023-03-05T14:28:55.805Z,100960.25
2023-03-05T14:31:23.025Z,100952.31
2023-03-05T14:33:51.040Z,100944.41
2023-03-05T14:36:26.298Z,100945.97
2023-03-05T14:38:53.657Z,100936.88
2023-03-05T14:41:36.669Z,100936.47
2023-03-05T14:44:11.652Z,100924.53
2023-03-05T14:46:38.147Z,100926.16
2023-03-05T14:49:04.939Z,100919.41
2023-03-05T14:51:35.468Z,100922.09
2023-03-05T14:54:01.987Z,100920.78
2023-03-05T14:56:28.902Z,100914.31
2023-03-05T14:58:57.505Z,100909.44
2023-03-05T15:01:25.298Z,100906.75
2023-03-05T15:03:52.226Z,100895.31
2023-03-05T15:06:32.746Z,100895.13
2023-03-05T15:09:00.826Z,100894.47
2023-03-05T15:11:27.453Z,100896.50
2023-03-05T15:13:53.879Z,100883.03
2023-03-05T15:16:20.674Z,100887.84
2023-03-05T15:18:47.843Z,100891.66
2023-03-05T15:21:14.811Z,100878.28
2023-03-05T15:23:41.474Z,100881.63
2023-03-05T15:26:09.623Z,100883.19
2023-03-05T15:28:37.691Z,100878.41
2023-03-05T15:31:05.786Z,100881.13
2023-03-05T15:33:33.530Z,100875.56
2023-03-05T15:36:00.164Z,100869.19
2023-03-05T15:38:26.630Z,100873.13
2023-03-05T15:40:53.134Z,100866.81
2023-03-05T15:43:20.049Z,100867.50
2023-03-05T15:45:46.963Z,100863.75
2023-03-05T15:48:13.518Z,100863.69
2023-03-05T15:50:43.811Z,100858.41
2023-03-05T15:53:15.625Z,100854.78
2023-03-05T15:55:43.581Z,100853.16
2023-03-05T15:58:14.054Z,100851.16
2023-03-05T16:00:40.876Z,100846.38
2023-03-05T16:03:07.508Z,100839.56
2023-03-05T16:05:36.668Z,100840.66
2023-03-05T16:08:04.131Z,100846.19
2023-03-05T16:10:31.425Z,100834.78
2023-03-05T16:13:07.349Z,100837.59
2023-03-05T16:15:35.236Z,100828.84
2023-03-05T16:18:06.223Z,100836.34
2023-03-05T16:20:32.710Z,100831.22
2023-03-05T16:22:59.219Z,100817.81
2023-03-05T16:25:26.692Z,100826.91
2023-03-05T16:27:53.181Z,100822.03
2023-03-05T16:30:19.800Z,100821.69
2023-03-05T16:32:46.272Z,100830.38
2023-03-05T16:35:13.186Z,100817.75
2023-03-05T16:37:40.437Z,100811.84
2023-03-05T16:40:08.541Z,100803.19
2023-03-05T16:42:35.018Z,100806.72
2023-03-05T16:45:01.738Z,100797.25
2023-03-05T16:47:28.198Z,100798.00
2023-03-05T16:49:54.792Z,100802.75
2023-03-05T16:52:22.431Z,100808.63
2023-03-05T16:54:49.344Z,100805.41
2023-03-05T16:57:16.079Z,100802.19
2023-03-05T16:59:43.716Z,100804.09
2023-03-05T17:02:12.986Z,100807.69
2023-03-05T17:04:39.486Z,100797.06
2023-03-05T17:07:06.082Z,100805.72
2023-03-05T17:09:33.185Z,100800.97
2023-03-05T17:12:00.247Z,100801.72
2023-03-05T17:14:26.959Z,100799.72
2023-03-05T17:16:53.625Z,100789.06
2023-03-05T17:19:20.170Z,100796.56
2023-03-05T17:21:50.572Z,100795.72
2023-03-05T17:24:17.994Z,100784.28
2023-03-05T17:26:44.541Z,100791.28
2023-03-05T17:29:11.044Z,100792.03
2023-03-05T17:31:37.727Z,100793.22
2023-03-05T17:34:04.279Z,100795.88
2023-03-05T17:36:32.130Z,100790.38
2023-03-05T17:38:58.592Z,100789.16
2023-03-05T17:41:25.051Z,100779.69
2023-03-05T17:43:51.609Z,100788.00
2023-03-05T17:46:18.176Z,100788.78
2023-03-05T17:48:44.688Z,100784.03
2023-03-05T17:51:13.480Z,100781.59
2023-03-05T17:53:40.533Z,100785.50
2023-03-05T17:56:12.510Z,100778.00
2023-03-05T17:58:39.473Z,100777.16
2023-03-05T18:01:07.293Z,100778.34
2023-03-05T18:03:34.839Z,100776.34
2023-03-05T18:06:01.756Z,100778.63
2023-03-05T18:08:28.277Z,100778.53
2023-03-05T18:10:54.906Z,100772.22
2023-03-05T18:13:21.499Z,100768.28
2023-03-05T18:15:48.009Z,100767.88
2023-03-05T18:18:15.952Z,100772.16
2023-03-05T18:20:42.800Z,100773.75
2023-03-05T18:23:10.154Z,100763.97
2023-03-05T18:25:36.692Z,100763.88
2023-03-05T18:28:06.309Z,100765.66
2023-03-05T18:30:32.995Z,100772.56
2023-03-05T18:33:00.308Z,100767.66
2023-03-05T18:35:29.033Z,100768.41
2023-03-05T18:37:56.336Z,100760.03
2023-03-05T18:40:26.527Z,100761.84
2023-03-05T18:42:53.085Z,100749.84
2023-03-05T18:45:21.407Z,100755.78
2023-03-05T18:47:49.043Z,100758.53
2023-03-05T18:50:18.563Z,100753.47
2023-03-05T18:52:46.256Z,100744.88
2023-03-05T18:55:17.363Z,100742.41
2023-03-05T18:57:43.991Z,100735.03
2023-03-05T19:00:14.173Z,100735.81
2023-03-05T19:02:40.971Z,100735.09
2023-03-05T19:05:07.827Z,100730.44
2023-03-05T19:07:35.235Z,100742.72
2023-03-05T19:10:07.458Z,100730.06
2023-03-05T19:12:45.433Z,100728.97
2023-03-05T19:15:13.280Z,100732.56
2023-03-05T19:17:39.938Z,100728.78
2023-03-05T19:20:07.835Z,100725.00
2023-03-05T19:22:34.625Z,100731.69
2023-03-05T19:25:01.675Z,100728.69
2023-03-05T19:27:28.454Z,100730.16
2023-03-05T19:29:55.142Z,100725.75
2023-03-05T19:32:24.425Z,100725.28
2023-03-05T19:34:55.051Z,100728.78
2023-03-05T19:37:21.581Z,100726.94
2023-03-05T19:39:48.285Z,100721.84
2023-03-05T19:42:15.163Z,100726.13
2023-03-05T19:44:41.886Z,100721.22
2023-03-05T19:47:08.398Z,100721.72
2023-03-05T19:49:35.832Z,100720.06
2023-03-05T19:52:04.178Z,100715.22
2023-03-05T19:54:30.638Z,100715.72
2023-03-05T19:56:58.863Z,100716.16
2023-03-05T19:59:25.500Z,100706.50
2023-03-05T20:01:52.663Z,100711.53
2023-03-05T20:04:22.310Z,100718.69
2023-03-05T20:06:49.072Z,100704.97
2023-03-05T20:09:16.276Z,100703.53
2023-03-05T20:11:43.018Z,100701.56
2023-03-05T20:14:10.112Z,100703.44
2023-03-05T20:16:40.544Z,100707.13
2023-03-05T20:19:10.081Z,100711.47
2023-03-05T20:21:40.868Z,100693.41
2023-03-05T20:24:11.177Z,100699.44
2023-03-05T20:26:38.963Z,100702.63
2023-03-05T20:29:06.092Z,100702.41
2023-03-05T20:31:37.318Z,100697.22
2023-03-05T20:34:54.013Z,100700.41
2023-03-05T20:37:20.721Z,100689.22
2023-03-05T20:39:47.191Z,100687.81
2023-03-05T20:42:13.640Z,100680.50
2023-03-05T20:44:40.180Z,100671.41
2023-03-05T20:47:23.721Z,100679.88
2023-03-05T20:49:54.278Z,100673.25
2023-03-05T20:52:20.740Z,100671.13
2023-03-05T20:54:47.841Z,100670.34
2023-03-05T20:57:14.325Z,100671.03
2023-03-05T20:59:40.814Z,100677.31
2023-03-05T21:02:09.739Z,100660.81
2023-03-05T21:04:36.256Z,100667.13
2023-03-05T21:07:04.074Z,100657.88
2023-03-05T21:09:31.341Z,100649.66
2023-03-05T21:11:57.825Z,100653.28
2023-03-05T21:14:24.308Z,100643.03
2023-03-05T21:16:50.776Z,100647.09
2023-03-05T21:19:17.445Z,100642.78
2023-03-05T21:21:45.710Z,100633.19
2023-03-05T21:24:12.813Z,100632.53
2023-03-05T21:26:39.273Z,100630.31
2023-03-05T21:29:05.786Z,100625.16
2023-03-05T21:31:32.428Z,100624.34
2023-03-05T21:33:59.121Z,100616.75
2023-03-05T21:36:25.599Z,100612.53
2023-03-05T21:38:52.070Z,100612.63
2023-03-05T21:41:20.459Z,100605.09
2023-03-05T21:43:46.975Z,100616.41
2023-03-05T21:46:13.667Z,100600.91
2023-03-05T21:48:40.193Z,100590.94
2023-03-05T21:51:09.591Z,100588.56
2023-03-05T21:53:36.182Z,100595.88
2023-03-05T21:56:18.724Z,100595.56
2023-03-05T21:58:45.524Z,100590.44
2023-03-05T22:01:13.178Z,100585.63
2023-03-05T22:03:39.641Z,100573.16
2023-03-05T22:06:13.301Z,100574.19
2023-03-05T22:08:39.960Z,100566.28
2023-03-05T22:11:10.783Z,100556.44
2023-03-05T22:13:38.081Z,100558.31
2023-03-05T22:16:05.372Z,100554.44
2023-03-05T22:18:32.753Z,100549.25
2023-03-05T22:20:59.719Z,100546.13
2023-03-05T22:23:29.322Z,100550.97
2023-03-05T22:26:01.704Z,100545.66
2023-03-05T22:28:29.213Z,100544.09
2023-03-05T22:30:56.374Z,100534.16
2023-03-05T22:33:23.406Z,100540.91
2023-03-05T22:35:50.001Z,100535.13
2023-03-05T22:38:16.724Z,100527.88
2023-03-05T22:40:46.563Z,100521.63
2023-03-05T22:43:14.169Z,100526.84
2023-03-05T22:45:40.713Z,100526.00
2023-03-05T22:48:09.818Z,100517.81
2023-03-05T22:50:37.722Z,100522.00
2023-03-05T22:53:04.361Z,100523.66
2023-03-05T22:55:30.873Z,100507.22
2023-03-05T22:57:57.350Z,100520.09
2023-03-05T23:00:24.170Z,100506.00
2023-03-05T23:02:51.567Z,100506.63
2023-03-05T23:05:19.037Z,100500.69
2023-03-05T23:07:46.392Z,100503.66
2023-03-05T23:10:19.272Z,100506.09
2023-03-05T23:12:50.807Z,100504.56
2023-03-05T23:15:21.941Z,100490.19
2023-03-05T23:17:48.652Z,100495.84
2023-03-05T23:20:17.842Z,100491.84
2023-03-05T23:22:45.197Z,100488.28
2023-03-05T23:25:13.649Z,100486.44
2023-03-05T23:27:40.349Z,100480.34
2023-03-05T23:30:21.802Z,100490.84
2023-03-05T23:32:51.711Z,100481.44
2023-03-05T23:35:24.979Z,100481.28
2023-03-05T23:37:52.866Z,100466.31
2023-03-05T23:40:22.748Z,100475.16
2023-03-05T23:42:50.080Z,100472.09
2023-03-05T23:45:18.382Z,100472.53
2023-03-05T23:47:46.100Z,100474.19
2023-03-05T23:50:15.676Z,100468.41
2023-03-05T23:52:43.112Z,100464.94
2023-03-05T23:55:19.268Z,100464.19
2023-03-05T23:57:47.042Z,100459.19
